Strona główna
METAR-TAF:

METAR-TAF

Lotnisko :

Port lotniczy Newquay

Newquay Cornwall, Anglia

Szerokość geograficzna: 50-26N, Długość geograficzna: 005-00W, wysokość: 119 m

Aktualna obserwacja pogody

Raport powstał 42 minut temu, godzina 10:20 UTC
Wiatr 11 kt od zachód
Temperatura 17°C
Wilgotność 77%
Ciśnienie 1013 hPa
Widzialność 10 km lub więcej
Mało chmury na wysokości 1700 ft

METAR: EGHQ 181020Z 27011KT 9999 FEW017 17/13 Q1013

czas: 12:02 (11:02 UTC)

Prognoza

Raport powstał 2 godziny i 58 minut temu, godzina 08:04 UTC
Prognoza ważna od 18 godzina 09 UTC do 18 godzina 18 UTC
Wiatr 12 kt od zachodnio-północny zachód
Widzialność 10 km lub więcej
Rozproszone chmury na wysokości 2500 ft
Prawdopodobieństwo 30% :
Przejściowo
od 18 godzina 09 UTC do 18 godzina 12 UTC
Widzialność: 8000 m
słaby przelotny opad deszczu

TAF: EGHQ 180804Z 1809/1818 30012KT 9999 SCT025 PROB30 TEMPO 1809/1812 8000 -SHRA

Obserwacja i prognoza pogody dla ponad 4000 lotnisk (raport METAR i TAF).

Dostępne stacje oznaczono żółtymi i czerwonymi punktami na mapie.

Najedź kursorem aby zobaczyć nazwę stacji.

Kliknij aby zobaczyć obserwacje i prognozy pogody.

Aby zmienić mapę: kliknij na zielony przycisk z czarnym krzyżykiem, aby powiększyć; na zielony przycisk z myślnikiem, aby pomniejszyć; na zielone strzałki, aby przejść do map sąsiednich.


METAR-TAF: